Cipotanea, Brazil
Current Conditions -  °F | °C
As of 7:00 PM on Sunday 23 Nov 2014 (Local Time) from SBBQ Reporting Station
Moderate Rain Moderate Rain  
Wind Chill: 68°   Ceiling: 1000
Heat Index: 68°   Visibility: 2.5mi
Dew Point: 64°   Wind: 5mph
Humidity: 88%   Direction: 60°ENE
Pressure: 30.12"   Gusts: NA
Location:  20.91°S, 43.37°W
Report Text: SBBQ 232100Z 06004KT 4000 RA OVC010 20/18 Q1020
Loading
Personal Weather Stations






























Interactive Weather Map New forecast layout! Learn more

10-Day Weather Forecast

Advertisements
Track Severe Weather on mobile